createdAt,value
2023-01-30T00:01:45.538Z,99167.75
2023-01-30T00:04:16.107Z,99153.78
2023-01-30T00:06:44.583Z,99143.44
2023-01-30T00:09:17.486Z,99156.38
2023-01-30T00:11:44.530Z,99150.41
2023-01-30T00:14:11.471Z,99150.28
2023-01-30T00:16:38.509Z,99152.09
2023-01-30T00:19:05.548Z,99142.34
2023-01-30T00:21:32.531Z,99148.53
2023-01-30T00:24:01.071Z,99139.84
2023-01-30T00:26:28.313Z,99143.28
2023-01-30T00:28:55.305Z,99098.81
2023-01-30T00:31:23.165Z,99131.97
2023-01-30T00:33:50.576Z,99118.53
2023-01-30T00:36:17.525Z,99116.09
2023-01-30T00:38:44.482Z,99121.25
2023-01-30T00:41:13.754Z,99107.56
2023-01-30T00:44:00.216Z,99102.81
2023-01-30T00:46:51.173Z,99099.91
2023-01-30T00:49:19.899Z,99098.22
2023-01-30T00:51:46.959Z,99105.81
2023-01-30T00:54:14.190Z,99099.84
2023-01-30T00:56:41.166Z,99068.38
2023-01-30T00:59:08.166Z,99102.38
2023-01-30T01:01:35.257Z,99104.13
2023-01-30T01:04:02.287Z,99082.56
2023-01-30T01:06:29.440Z,99090.78
2023-01-30T01:08:56.961Z,99080.91
2023-01-30T01:11:24.678Z,99083.56
2023-01-30T01:14:00.773Z,99089.34
2023-01-30T01:16:30.223Z,99058.66
2023-01-30T01:18:59.105Z,99082.81
2023-01-30T01:21:26.099Z,99077.72
2023-01-30T01:23:58.136Z,99059.22
2023-01-30T01:26:25.998Z,99069.25
2023-01-30T01:28:57.169Z,99077.13
2023-01-30T01:31:24.732Z,99049.91
2023-01-30T01:33:52.162Z,99047.69
2023-01-30T01:36:42.429Z,99069.19
2023-01-30T01:39:06.432Z,99054.53
2023-01-30T01:41:33.529Z,99049.50
2023-01-30T01:44:07.252Z,99056.44
2023-01-30T01:46:40.421Z,99038.78
2023-01-30T01:49:25.025Z,99026.78
2023-01-30T01:51:55.190Z,99025.38
2023-01-30T01:54:36.285Z,99011.06
2023-01-30T01:57:12.055Z,98997.31
2023-01-30T01:59:46.774Z,98997.31
2023-01-30T02:02:17.055Z,99000.19
2023-01-30T02:05:02.453Z,98962.75
2023-01-30T02:07:52.567Z,98957.78
2023-01-30T02:10:23.432Z,98983.25
2023-01-30T02:12:51.972Z,98971.00
2023-01-30T02:15:21.353Z,98966.50
2023-01-30T02:17:48.603Z,98990.59
2023-01-30T02:20:32.422Z,98985.50
2023-01-30T02:23:08.201Z,98988.78
2023-01-30T02:25:44.407Z,98984.44
2023-01-30T02:28:49.486Z,98979.50
2023-01-30T02:31:36.859Z,98975.16
2023-01-30T02:34:10.420Z,98967.56
2023-01-30T02:36:58.783Z,98960.84
2023-01-30T02:39:33.630Z,98951.59
2023-01-30T02:42:12.139Z,98947.66
2023-01-30T02:44:51.131Z,98956.28
2023-01-30T02:47:25.721Z,98946.84
2023-01-30T02:50:02.559Z,98954.59
2023-01-30T02:52:31.599Z,98925.19
2023-01-30T02:54:58.633Z,98915.84
2023-01-30T02:57:27.362Z,98945.22
2023-01-30T03:00:02.773Z,98929.03
2023-01-30T03:02:52.183Z,98943.75
2023-01-30T03:05:43.409Z,98923.06
2023-01-30T03:08:28.762Z,98925.91
2023-01-30T03:11:03.506Z,98884.28
2023-01-30T03:13:59.136Z,98910.13
2023-01-30T03:16:33.343Z,98883.31
2023-01-30T03:19:01.761Z,98894.75
2023-01-30T03:21:28.762Z,98875.59
2023-01-30T03:23:55.746Z,98894.81
2023-01-30T03:26:31.121Z,98881.94
2023-01-30T03:28:58.590Z,98892.63
2023-01-30T03:31:25.688Z,98883.28
2023-01-30T03:33:52.747Z,98874.94
2023-01-30T03:36:19.843Z,98869.84
2023-01-30T03:38:46.973Z,98860.38
2023-01-30T03:41:14.067Z,98865.28
2023-01-30T03:43:41.191Z,98862.78
2023-01-30T03:46:08.262Z,98836.59
2023-01-30T03:48:35.278Z,98856.75
2023-01-30T03:51:02.270Z,98854.34
2023-01-30T03:53:29.728Z,98841.72
2023-01-30T03:55:56.672Z,98842.53
2023-01-30T03:58:30.124Z,98848.63
2023-01-30T04:00:58.897Z,98834.94
2023-01-30T04:03:26.502Z,98828.97
2023-01-30T04:05:57.682Z,98829.84
2023-01-30T04:08:24.673Z,98824.53
2023-01-30T04:10:51.699Z,98815.47
2023-01-30T04:13:18.862Z,98802.44
2023-01-30T04:15:45.950Z,98812.84
2023-01-30T04:18:33.873Z,98783.16
2023-01-30T04:21:11.089Z,98799.28
2023-01-30T04:23:39.663Z,98810.50
2023-01-30T04:26:08.633Z,98794.94
2023-01-30T04:28:38.377Z,98803.75
2023-01-30T04:31:05.603Z,98791.06
2023-01-30T04:33:58.402Z,98793.38
2023-01-30T04:36:25.406Z,98789.13
2023-01-30T04:38:53.327Z,98782.13
2023-01-30T04:41:21.624Z,98789.56
2023-01-30T04:43:49.392Z,98778.50
2023-01-30T04:46:35.067Z,98751.44
2023-01-30T04:49:02.133Z,98787.09
2023-01-30T04:51:29.229Z,98772.66
2023-01-30T04:53:57.777Z,98762.75
2023-01-30T04:56:24.867Z,98767.44
2023-01-30T04:58:53.177Z,98743.38
2023-01-30T05:01:31.545Z,98760.22
2023-01-30T05:03:59.248Z,98728.19
2023-01-30T05:06:26.743Z,98731.00
2023-01-30T05:08:55.919Z,98752.75
2023-01-30T05:11:24.587Z,98727.63
2023-01-30T05:13:51.840Z,98740.69
2023-01-30T05:16:20.454Z,98726.81
2023-01-30T05:18:47.794Z,98726.28
2023-01-30T05:21:25.510Z,98706.25
2023-01-30T05:23:53.723Z,98735.78
2023-01-30T05:26:20.846Z,98721.28
2023-01-30T05:28:53.124Z,98715.84
2023-01-30T05:31:21.408Z,98707.06
2023-01-30T05:33:49.714Z,98697.75
2023-01-30T05:36:19.027Z,98701.16
2023-01-30T05:38:46.411Z,98689.84
2023-01-30T05:41:15.352Z,98693.66
2023-01-30T05:43:42.681Z,98691.31
2023-01-30T05:46:12.729Z,98693.25
2023-01-30T05:48:39.905Z,98688.09
2023-01-30T05:51:07.131Z,98689.94
2023-01-30T05:53:35.263Z,98660.72
2023-01-30T05:56:05.354Z,98675.41
2023-01-30T05:58:33.330Z,98671.94
2023-01-30T06:01:05.442Z,98675.41
2023-01-30T06:03:32.580Z,98659.59
2023-01-30T06:06:01.800Z,98667.84
2023-01-30T06:08:29.241Z,98670.06
2023-01-30T06:11:03.604Z,98672.78
2023-01-30T06:13:30.885Z,98660.16
2023-01-30T06:15:58.211Z,98667.69
2023-01-30T06:18:25.575Z,98667.19
2023-01-30T06:20:53.563Z,98638.97
2023-01-30T06:23:23.575Z,98659.22
2023-01-30T06:25:52.319Z,98632.75
2023-01-30T06:28:20.276Z,98658.94
2023-01-30T06:30:47.384Z,98659.22
2023-01-30T06:33:14.820Z,98633.25
2023-01-30T06:35:43.045Z,98658.47
2023-01-30T06:38:11.654Z,98662.09
2023-01-30T06:40:38.993Z,98620.00
2023-01-30T06:43:06.232Z,98654.13
2023-01-30T06:45:33.857Z,98635.94
2023-01-30T06:48:00.843Z,98645.72
2023-01-30T06:50:29.014Z,98623.88
2023-01-30T06:52:56.838Z,98652.50
2023-01-30T06:55:26.512Z,98632.63
2023-01-30T06:58:13.307Z,98656.09
2023-01-30T07:00:42.457Z,98650.72
2023-01-30T07:03:17.576Z,98644.69
2023-01-30T07:05:46.350Z,98637.22
2023-01-30T07:08:13.919Z,98653.13
2023-01-30T07:10:42.036Z,98628.16
2023-01-30T07:13:09.502Z,98572.78
2023-01-30T07:15:36.516Z,98638.22
2023-01-30T07:18:03.617Z,98632.16
2023-01-30T07:20:31.521Z,98631.53
2023-01-30T07:22:58.747Z,98625.56
2023-01-30T07:25:28.116Z,98633.63
2023-01-30T07:28:00.795Z,98623.06
2023-01-30T07:30:31.839Z,98617.47
2023-01-30T07:33:00.265Z,98578.69
2023-01-30T07:35:31.016Z,98580.69
2023-01-30T07:37:58.527Z,98581.75
2023-01-30T07:40:26.889Z,98601.91
2023-01-30T07:43:06.491Z,98587.28
2023-01-30T07:45:48.231Z,98594.19
2023-01-30T07:48:18.024Z,98582.13
2023-01-30T07:50:45.842Z,98589.06
2023-01-30T07:53:15.828Z,98564.69
2023-01-30T07:55:43.255Z,98562.63
2023-01-30T07:58:14.655Z,98567.47
2023-01-30T08:00:42.037Z,98565.03
2023-01-30T08:03:16.868Z,98586.56
2023-01-30T08:05:46.913Z,98585.97
2023-01-30T08:08:14.544Z,98566.28
2023-01-30T08:10:41.963Z,98559.34
2023-01-30T08:13:08.945Z,98562.19
2023-01-30T08:15:35.931Z,98563.00
2023-01-30T08:18:02.915Z,98564.03
2023-01-30T08:20:29.917Z,98556.22
2023-01-30T08:22:59.230Z,98544.41
2023-01-30T08:25:26.339Z,98541.75
2023-01-30T08:27:53.919Z,98524.78
2023-01-30T08:30:22.269Z,98525.38
2023-01-30T08:32:49.449Z,98538.56
2023-01-30T08:35:16.588Z,98519.66
2023-01-30T08:37:43.865Z,98530.09
2023-01-30T08:40:11.727Z,98519.06
2023-01-30T08:42:39.789Z,98510.50
2023-01-30T08:45:07.469Z,98516.28
2023-01-30T08:47:35.720Z,98522.81
2023-01-30T08:50:03.791Z,98524.72
2023-01-30T08:52:33.030Z,98505.13
2023-01-30T08:55:00.015Z,98526.03
2023-01-30T08:57:27.038Z,98514.28
2023-01-30T08:59:54.073Z,98510.25
2023-01-30T09:02:21.312Z,98505.09
2023-01-30T09:04:48.264Z,98501.03
2023-01-30T09:07:15.365Z,98499.72
2023-01-30T09:09:42.321Z,98472.78
2023-01-30T09:12:09.341Z,98498.97
2023-01-30T09:14:36.320Z,98494.69
2023-01-30T09:17:03.279Z,98487.72
2023-01-30T09:19:30.613Z,98490.16
2023-01-30T09:21:57.650Z,98472.50
2023-01-30T09:24:27.957Z,98475.13
2023-01-30T09:26:57.706Z,98472.94
2023-01-30T09:29:25.847Z,98474.09
2023-01-30T09:31:53.358Z,98470.59
2023-01-30T09:34:20.426Z,98450.00
2023-01-30T09:36:47.383Z,98439.56
2023-01-30T09:39:14.320Z,98446.19
2023-01-30T09:42:05.394Z,98453.25
2023-01-30T09:44:35.237Z,98444.84
2023-01-30T09:47:08.252Z,98434.75
2023-01-30T09:49:44.262Z,98430.69
2023-01-30T09:52:43.305Z,98423.88
2023-01-30T09:55:19.790Z,98411.06
2023-01-30T09:57:51.990Z,98414.41
2023-01-30T10:00:25.864Z,98416.50
2023-01-30T10:03:21.403Z,98395.31
2023-01-30T10:06:05.107Z,98404.88
2023-01-30T10:09:00.717Z,98402.38
2023-01-30T10:11:48.014Z,98400.72
2023-01-30T10:14:36.475Z,98391.97
2023-01-30T10:17:03.439Z,98385.13
2023-01-30T10:19:50.212Z,98391.97
2023-01-30T10:22:50.305Z,98393.63
2023-01-30T10:25:24.508Z,98387.50
2023-01-30T10:28:03.608Z,98384.03
2023-01-30T10:30:31.151Z,98372.91
2023-01-30T10:33:04.670Z,98371.44
2023-01-30T10:35:36.084Z,98361.13
2023-01-30T10:38:12.887Z,98366.78
2023-01-30T10:40:46.171Z,98356.66
2023-01-30T10:43:30.084Z,98361.25
2023-01-30T10:46:10.405Z,98325.91
2023-01-30T10:48:52.750Z,98328.69
2023-01-30T10:51:34.856Z,98346.06
2023-01-30T10:54:10.237Z,98339.25
2023-01-30T10:57:14.188Z,98345.41
2023-01-30T10:59:47.161Z,98340.84
2023-01-30T11:02:40.779Z,98328.00
2023-01-30T11:05:21.452Z,98321.81
2023-01-30T11:07:49.380Z,98319.03
2023-01-30T11:10:23.219Z,98283.91
2023-01-30T11:12:58.704Z,98291.63
2023-01-30T11:15:38.676Z,98310.19
2023-01-30T11:19:16.263Z,98289.66
2023-01-30T11:21:05.475Z,98307.91
2023-01-30T11:23:44.941Z,98306.03
2023-01-30T11:26:23.001Z,98297.41
2023-01-30T11:28:50.061Z,98288.75
2023-01-30T11:31:40.031Z,98293.03
2023-01-30T11:34:17.709Z,98289.84
2023-01-30T11:36:47.286Z,98293.94
2023-01-30T11:39:14.567Z,98293.00
2023-01-30T11:42:05.909Z,98277.41
2023-01-30T11:44:36.168Z,98289.28
2023-01-30T11:47:20.321Z,98261.69
2023-01-30T11:50:01.968Z,98269.50
2023-01-30T11:52:44.256Z,98276.72
2023-01-30T11:55:15.695Z,98266.94
2023-01-30T11:57:51.501Z,98264.38
2023-01-30T12:00:29.511Z,98264.44
2023-01-30T12:03:01.408Z,98267.75
2023-01-30T12:05:37.001Z,98266.06
2023-01-30T12:08:14.866Z,98235.09
2023-01-30T12:10:44.356Z,98254.53
2023-01-30T12:13:20.248Z,98254.00
2023-01-30T12:15:52.953Z,98242.13
2023-01-30T12:18:26.330Z,98247.38
2023-01-30T12:21:00.419Z,98240.50
2023-01-30T12:23:39.724Z,98250.00
2023-01-30T12:26:25.793Z,98248.34
2023-01-30T12:29:10.252Z,98228.72
2023-01-30T12:31:42.057Z,98238.94
2023-01-30T12:34:10.645Z,98229.16
2023-01-30T12:37:05.186Z,98224.78
2023-01-30T12:40:07.782Z,98230.19
2023-01-30T12:42:47.945Z,98223.22
2023-01-30T12:45:29.936Z,98209.47
2023-01-30T12:48:08.847Z,98230.19
2023-01-30T12:51:03.554Z,98188.66
2023-01-30T12:53:42.642Z,98216.47
2023-01-30T12:56:30.888Z,98212.56
2023-01-30T12:59:03.914Z,98211.66
2023-01-30T13:01:41.398Z,98212.50
2023-01-30T13:04:23.779Z,98179.91
2023-01-30T13:06:56.566Z,98204.84
2023-01-30T13:09:44.766Z,98187.59
2023-01-30T13:12:43.837Z,98189.13
2023-01-30T13:15:21.714Z,98195.16
2023-01-30T13:18:00.781Z,98190.97
2023-01-30T13:20:39.903Z,98193.53
2023-01-30T13:23:22.748Z,98178.66
2023-01-30T13:26:02.084Z,98165.94
2023-01-30T13:28:42.462Z,98169.63
2023-01-30T13:31:20.057Z,98170.41
2023-01-30T13:33:51.369Z,98181.53
2023-01-30T13:36:23.322Z,98152.28
2023-01-30T13:39:32.023Z,98173.81
2023-01-30T13:42:02.039Z,98168.56
2023-01-30T13:44:31.525Z,98161.84
2023-01-30T13:47:27.768Z,98155.94
2023-01-30T13:50:03.276Z,98158.53
2023-01-30T13:52:41.088Z,98148.25
2023-01-30T13:55:11.147Z,98153.31
2023-01-30T13:57:45.460Z,98150.63
2023-01-30T14:00:55.085Z,98154.28
2023-01-30T14:03:31.790Z,98154.13
2023-01-30T14:06:02.604Z,98149.78
2023-01-30T14:08:50.670Z,98153.06
2023-01-30T14:11:33.032Z,98125.56
2023-01-30T14:14:04.574Z,98127.94
2023-01-30T14:16:45.462Z,98148.94
2023-01-30T14:19:28.675Z,98127.53
2023-01-30T14:21:57.749Z,98144.84
2023-01-30T14:24:25.192Z,98143.16
2023-01-30T14:27:02.457Z,98129.22
2023-01-30T14:29:38.514Z,98152.56
2023-01-30T14:32:15.180Z,98136.34
2023-01-30T14:34:44.158Z,98137.88
2023-01-30T14:37:46.808Z,98133.66
2023-01-30T14:40:22.786Z,98127.53
2023-01-30T14:43:23.574Z,98129.31
2023-01-30T14:45:53.221Z,98124.03
2023-01-30T14:48:38.800Z,98115.53
2023-01-30T14:51:34.629Z,98118.91
2023-01-30T14:54:14.214Z,98126.97
2023-01-30T14:57:04.187Z,98127.00
2023-01-30T14:59:46.311Z,98131.22
2023-01-30T15:02:13.345Z,98128.44
2023-01-30T15:05:09.788Z,98121.19
2023-01-30T15:07:43.242Z,98122.00
2023-01-30T15:10:22.388Z,98127.25
2023-01-30T15:13:13.745Z,98107.38
2023-01-30T15:15:59.491Z,98114.50
2023-01-30T15:19:02.720Z,98124.94
2023-01-30T15:21:42.022Z,98111.31
2023-01-30T15:24:18.504Z,98115.56
2023-01-30T15:26:59.563Z,98124.81
2023-01-30T15:29:56.040Z,98115.34
2023-01-30T15:32:31.419Z,98110.25
2023-01-30T15:35:16.684Z,98111.13
2023-01-30T15:37:46.574Z,98121.38
2023-01-30T15:40:16.623Z,98117.03
2023-01-30T15:42:49.619Z,98113.78
2023-01-30T15:45:24.415Z,98113.81
2023-01-30T15:48:30.882Z,98107.88
2023-01-30T15:51:00.483Z,98102.78
2023-01-30T15:53:41.960Z,98102.94
2023-01-30T15:56:11.824Z,98083.97
2023-01-30T15:58:42.592Z,98094.41
2023-01-30T16:01:11.383Z,98089.28
2023-01-30T16:03:42.836Z,98084.97
2023-01-30T16:06:24.688Z,98088.47
2023-01-30T16:09:02.185Z,98067.09
2023-01-30T16:11:39.416Z,98065.25
2023-01-30T16:14:12.581Z,98083.38
2023-01-30T16:16:44.529Z,98084.19
2023-01-30T16:19:23.294Z,98083.38
2023-01-30T16:21:50.311Z,98046.38
2023-01-30T16:24:26.963Z,98090.25
2023-01-30T16:27:00.027Z,98097.97
2023-01-30T16:29:30.735Z,98072.88
2023-01-30T16:31:58.186Z,98095.38
2023-01-30T16:34:32.833Z,98088.41
2023-01-30T16:37:23.058Z,98080.66
2023-01-30T16:40:23.128Z,98071.81
2023-01-30T16:43:02.016Z,98085.75
2023-01-30T16:45:35.221Z,98089.09
2023-01-30T16:48:35.410Z,98090.16
2023-01-30T16:51:02.393Z,98095.22
2023-01-30T16:53:32.277Z,98066.81
2023-01-30T16:56:04.080Z,98070.28
2023-01-30T16:58:34.222Z,98083.13
2023-01-30T17:01:05.563Z,98077.25
2023-01-30T17:03:37.077Z,98083.31
2023-01-30T17:06:15.203Z,98084.16
2023-01-30T17:08:54.300Z,98068.66
2023-01-30T17:11:37.876Z,98092.91
2023-01-30T17:14:20.203Z,98082.75
2023-01-30T17:17:08.103Z,98083.53
2023-01-30T17:19:36.887Z,98086.91
2023-01-30T17:22:16.275Z,98084.03
2023-01-30T17:24:43.293Z,98091.84
2023-01-30T17:27:10.312Z,98089.41
2023-01-30T17:29:44.990Z,98090.09
2023-01-30T17:32:15.240Z,98080.66
2023-01-30T17:34:42.622Z,98075.66
2023-01-30T17:37:16.835Z,98045.47
2023-01-30T17:39:44.089Z,98081.69
2023-01-30T17:42:12.485Z,98092.03
2023-01-30T17:44:39.819Z,98086.03
2023-01-30T17:47:07.028Z,98081.59
2023-01-30T17:49:34.014Z,98065.97
2023-01-30T17:52:01.037Z,98094.34
2023-01-30T17:54:30.161Z,98098.84
2023-01-30T17:57:01.587Z,98104.78
2023-01-30T17:59:28.769Z,98095.41
2023-01-30T18:01:55.822Z,98090.19
2023-01-30T18:04:23.081Z,98096.22
2023-01-30T18:06:55.615Z,98077.84
2023-01-30T18:09:24.652Z,98084.53
2023-01-30T18:11:52.108Z,98104.47
2023-01-30T18:14:19.440Z,98084.75
2023-01-30T18:16:46.528Z,98096.94
2023-01-30T18:19:15.729Z,98092.38
2023-01-30T18:21:45.241Z,98106.03
2023-01-30T18:24:13.773Z,98091.53
2023-01-30T18:26:41.594Z,98101.81
2023-01-30T18:29:09.899Z,98102.78
2023-01-30T18:31:38.640Z,98091.53
2023-01-30T18:34:07.231Z,98092.47
2023-01-30T18:36:35.871Z,98096.81
2023-01-30T18:39:03.969Z,98096.81
2023-01-30T18:41:32.480Z,98102.03
2023-01-30T18:44:02.319Z,98094.22
2023-01-30T18:46:30.555Z,98097.66
2023-01-30T18:48:58.438Z,98102.63
2023-01-30T18:51:28.171Z,98094.94
2023-01-30T18:53:55.774Z,98095.81
2023-01-30T18:56:28.066Z,98092.19
2023-01-30T18:58:56.544Z,98092.31
2023-01-30T19:01:26.694Z,98099.16
2023-01-30T19:04:01.965Z,98098.34
2023-01-30T19:06:29.340Z,98075.78
2023-01-30T19:08:57.604Z,98106.81
2023-01-30T19:11:43.423Z,98098.97
2023-01-30T19:14:10.864Z,98077.28
2023-01-30T19:16:39.203Z,98062.59
2023-01-30T19:19:07.788Z,98068.44
2023-01-30T19:21:35.806Z,98090.22
2023-01-30T19:24:04.219Z,98054.09
2023-01-30T19:26:31.315Z,98077.47
2023-01-30T19:28:58.480Z,98078.41
2023-01-30T19:31:25.931Z,98061.84
2023-01-30T19:33:56.096Z,98079.13
2023-01-30T19:36:25.303Z,98084.31
2023-01-30T19:38:52.846Z,98087.78
2023-01-30T19:41:24.415Z,98083.50
2023-01-30T19:43:53.255Z,98077.56
2023-01-30T19:46:20.717Z,98089.50
2023-01-30T19:48:49.046Z,98087.75
2023-01-30T19:51:27.833Z,98079.09
2023-01-30T19:54:06.781Z,98093.56
2023-01-30T19:56:34.849Z,98078.81
2023-01-30T19:59:02.478Z,98094.13
2023-01-30T20:01:33.092Z,98077.69
2023-01-30T20:04:02.046Z,98095.59
2023-01-30T20:06:32.018Z,98103.13
2023-01-30T20:09:05.484Z,98099.63
2023-01-30T20:11:34.633Z,98090.22
2023-01-30T20:14:02.510Z,98093.44
2023-01-30T20:16:31.415Z,98094.84
2023-01-30T20:19:12.991Z,98087.94
2023-01-30T20:21:40.046Z,98081.41
2023-01-30T20:24:07.492Z,98070.84
2023-01-30T20:26:36.707Z,98096.75
2023-01-30T20:29:04.975Z,98095.81
2023-01-30T20:31:32.685Z,98085.97
2023-01-30T20:34:04.970Z,98102.25
2023-01-30T20:36:32.365Z,98086.94
2023-01-30T20:39:04.418Z,98092.91
2023-01-30T20:41:36.959Z,98093.00
2023-01-30T20:44:06.287Z,98090.59
2023-01-30T20:46:41.356Z,98095.91
2023-01-30T20:49:20.355Z,98087.41
2023-01-30T20:51:50.326Z,98087.59
2023-01-30T20:54:18.878Z,98091.88
2023-01-30T20:56:48.624Z,98080.56
2023-01-30T20:59:18.507Z,98084.81
2023-01-30T21:01:46.107Z,98090.63
2023-01-30T21:04:15.519Z,98088.78
2023-01-30T21:06:45.785Z,98083.00
2023-01-30T21:09:23.975Z,98073.56
2023-01-30T21:11:55.260Z,98079.56
2023-01-30T21:14:29.563Z,98096.59
2023-01-30T21:16:59.022Z,98082.00
2023-01-30T21:19:27.038Z,98094.81
2023-01-30T21:21:56.104Z,98085.31
2023-01-30T21:24:26.515Z,98097.28
2023-01-30T21:26:54.044Z,98088.53
2023-01-30T21:29:24.650Z,98085.97
2023-01-30T21:31:51.816Z,98086.91
2023-01-30T21:34:18.912Z,98091.31
2023-01-30T21:37:06.923Z,98076.88
2023-01-30T21:39:53.961Z,98091.66
2023-01-30T21:42:40.369Z,98084.69
2023-01-30T21:45:08.066Z,98085.72
2023-01-30T21:47:35.175Z,98088.38
2023-01-30T21:50:02.363Z,98090.09
2023-01-30T21:52:32.199Z,98088.31
2023-01-30T21:54:59.501Z,98085.75
2023-01-30T21:57:26.477Z,98085.53
2023-01-30T21:59:53.562Z,98088.13
2023-01-30T22:02:20.571Z,98090.72
2023-01-30T22:04:47.515Z,98059.09
2023-01-30T22:07:14.515Z,98082.28
2023-01-30T22:09:41.475Z,98096.25
2023-01-30T22:12:08.499Z,98081.44
2023-01-30T22:14:36.441Z,98100.63
2023-01-30T22:17:03.549Z,98092.97
2023-01-30T22:19:35.666Z,98097.28
2023-01-30T22:22:03.671Z,98094.84
2023-01-30T22:24:30.823Z,98058.56
2023-01-30T22:26:58.440Z,98101.59
2023-01-30T22:29:25.533Z,98095.06
2023-01-30T22:31:52.608Z,98096.59
2023-01-30T22:34:19.691Z,98087.19
2023-01-30T22:36:48.001Z,98095.88
2023-01-30T22:39:14.958Z,98087.41
2023-01-30T22:41:42.027Z,98080.59
2023-01-30T22:44:10.826Z,98018.88
2023-01-30T22:46:39.928Z,98088.97
2023-01-30T22:49:09.220Z,98091.59
2023-01-30T22:51:39.573Z,98080.38
2023-01-30T22:54:15.722Z,98094.81
2023-01-30T22:56:48.604Z,98061.47
2023-01-30T22:59:15.865Z,98086.38
2023-01-30T23:01:48.014Z,98086.38
2023-01-30T23:04:17.724Z,98074.13
2023-01-30T23:06:45.440Z,98089.41
2023-01-30T23:09:16.632Z,98088.59
2023-01-30T23:12:07.241Z,98067.00
2023-01-30T23:14:34.895Z,98014.09
2023-01-30T23:17:21.868Z,98102.66
2023-01-30T23:19:48.843Z,98095.97
2023-01-30T23:22:15.833Z,98092.50
2023-01-30T23:24:42.808Z,98082.00
2023-01-30T23:27:09.784Z,98096.06
2023-01-30T23:29:37.074Z,98094.28
2023-01-30T23:32:04.239Z,98081.53
2023-01-30T23:34:31.352Z,98086.03
2023-01-30T23:36:58.271Z,98092.78
2023-01-30T23:39:25.370Z,98085.09
2023-01-30T23:41:52.317Z,98084.13
2023-01-30T23:44:19.321Z,98092.03
2023-01-30T23:46:46.342Z,98062.78
2023-01-30T23:49:14.935Z,98079.94
2023-01-30T23:51:44.320Z,98073.19
2023-01-30T23:54:12.678Z,98085.22
2023-01-30T23:56:42.402Z,98091.31
2023-01-30T23:59:09.754Z,98098.97
